Time;durP1;ratioP1;P1;durP2;ratioP2;P2;SDS_P1;SDS_P2;PMS_P1;PMS_P2;Temp;Humidity;BMP_temperature;BMP_pressure;BME280_temperature;BME280_humidity;BME280_pressure;Samples;Min_cycle;Max_cycle;Signal;HPM_P1;HPM_P2
2023/07/19 00:00:39;;;;;;;5.07;2.30;;;30.00;67.40;;;;;;4956931;29;20031;-78
2023/07/19 00:03:05;;;;;;;4.75;1.88;;;30.00;67.30;;;;;;4956913;29;20035;-78
2023/07/19 00:05:31;;;;;;;4.45;2.30;;;30.00;67.10;;;;;;4956809;28;20384;-78
2023/07/19 00:07:57;;;;;;;5.32;2.28;;;30.00;67.00;;;;;;4956870;29;20024;-78
2023/07/19 00:10:23;;;;;;;6.18;2.38;;;30.00;66.60;;;;;;4966704;28;20038;-78
2023/07/19 00:12:48;;;;;;;3.50;2.42;;;30.00;66.40;;;;;;4956477;29;20058;-77
2023/07/19 00:15:14;;;;;;;4.30;1.95;;;30.00;66.70;;;;;;4971409;28;20026;-78
2023/07/19 00:17:42;;;;;;;5.05;2.25;;;29.90;66.40;;;;;;4976223;28;20109;-78
2023/07/19 00:20:08;;;;;;;4.15;2.00;;;29.90;66.60;;;;;;4958559;28;20030;-78
2023/07/19 00:22:34;;;;;;;4.00;2.00;;;29.90;66.50;;;;;;4974838;28;20459;-78
2023/07/19 00:24:59;;;;;;;4.30;2.38;;;29.90;66.50;;;;;;4963269;28;20039;-78
2023/07/19 00:27:25;;;;;;;5.82;2.40;;;29.90;66.40;;;;;;4956580;29;20103;-78
2023/07/19 00:29:51;;;;;;;5.47;2.42;;;29.80;66.50;;;;;;4956528;29;20524;-78
2023/07/19 00:32:17;;;;;;;4.68;2.00;;;29.80;66.60;;;;;;4960836;28;20031;-78
2023/07/19 00:34:43;;;;;;;6.43;2.25;;;29.80;66.80;;;;;;4984766;28;20038;-78
2023/07/19 00:37:08;;;;;;;7.03;2.15;;;29.80;66.90;;;;;;4978397;28;20074;-78
2023/07/19 00:39:34;;;;;;;4.57;2.90;;;29.80;67.00;;;;;;4975457;28;20058;-78
2023/07/19 00:42:01;;;;;;;8.80;2.47;;;29.80;67.10;;;;;;4958097;28;20034;-78
2023/07/19 00:44:27;;;;;;;5.55;2.10;;;29.80;67.20;;;;;;4982343;28;20035;-78
2023/07/19 00:46:53;;;;;;;5.10;2.30;;;29.80;67.20;;;;;;4994614;28;20521;-78
2023/07/19 00:49:19;;;;;;;6.40;2.10;;;29.70;67.00;;;;;;4994908;28;20526;-78
2023/07/19 00:51:45;;;;;;;3.60;1.75;;;29.70;67.10;;;;;;4994809;28;20356;-78
2023/07/19 00:54:11;;;;;;;7.47;2.63;;;29.70;66.90;;;;;;4976654;28;20034;-78
2023/07/19 00:56:40;;;;;;;3.45;1.98;;;29.70;67.00;;;;;;4994613;28;20066;-78
2023/07/19 00:59:07;;;;;;;5.20;2.20;;;29.70;67.00;;;;;;4994553;28;20066;-78
2023/07/19 01:01:33;;;;;;;5.65;1.73;;;29.60;66.50;;;;;;4994194;28;20105;-78
2023/07/19 01:03:59;;;;;;;3.70;1.52;;;29.50;66.70;;;;;;4979258;28;20077;-78
2023/07/19 01:06:25;;;;;;;5.28;2.28;;;29.50;66.80;;;;;;4975959;28;20079;-78
2023/07/19 01:08:51;;;;;;;4.85;2.15;;;29.50;66.90;;;;;;4990571;28;20421;-78
2023/07/19 01:11:16;;;;;;;4.78;2.15;;;29.50;67.10;;;;;;4994501;28;20036;-79
2023/07/19 01:13:55;;;;;;;4.78;2.40;;;29.50;67.30;;;;;;4994201;28;20150;-78
2023/07/19 01:16:21;;;;;;;4.55;1.90;;;29.50;67.30;;;;;;4994145;28;20093;-79
2023/07/19 01:18:47;;;;;;;5.00;2.17;;;29.40;67.30;;;;;;4976486;28;20487;-78
2023/07/19 01:21:13;;;;;;;3.92;1.85;;;29.40;67.30;;;;;;4976885;28;20034;-78
2023/07/19 01:23:39;;;;;;;5.25;1.95;;;29.40;67.60;;;;;;4994283;28;20023;-78
2023/07/19 01:26:06;;;;;;;2.83;1.67;;;29.40;67.70;;;;;;4986224;28;20383;-78
2023/07/19 01:28:32;;;;;;;5.25;2.10;;;29.40;67.80;;;;;;4975005;28;20114;-78
2023/07/19 01:31:04;;;;;;;4.63;2.35;;;29.40;67.80;;;;;;4974752;28;20156;-78
2023/07/19 01:33:30;;;;;;;5.90;1.90;;;29.40;67.90;;;;;;4975004;28;20055;-79
2023/07/19 01:35:55;;;;;;;6.40;2.30;;;29.40;67.90;;;;;;4974023;28;20046;-78
2023/07/19 01:38:21;;;;;;;3.75;2.10;;;29.50;67.80;;;;;;4994273;28;20018;-78
2023/07/19 01:40:47;;;;;;;6.88;2.10;;;29.50;67.80;;;;;;4976410;28;20033;-78
2023/07/19 01:43:12;;;;;;;4.40;2.08;;;29.50;68.40;;;;;;4993895;28;20030;-78
2023/07/19 01:45:38;;;;;;;6.93;2.20;;;29.60;67.90;;;;;;4957524;28;20026;-78
2023/07/19 01:48:04;;;;;;;4.97;2.03;;;29.60;67.80;;;;;;4956974;28;20432;-78
2023/07/19 01:50:30;;;;;;;3.90;2.20;;;29.60;67.70;;;;;;4960117;28;20023;-78
2023/07/19 01:52:56;;;;;;;7.03;2.28;;;29.60;67.90;;;;;;4993789;28;20022;-77
2023/07/19 01:55:21;;;;;;;10.73;2.67;;;29.60;68.10;;;;;;4977939;28;20506;-78
2023/07/19 01:57:48;;;;;;;6.40;2.47;;;29.60;68.30;;;;;;4974270;28;20037;-78
2023/07/19 02:00:14;;;;;;;5.70;2.65;;;29.60;68.90;;;;;;4974195;28;20037;-78
2023/07/19 02:02:40;;;;;;;4.32;2.15;;;29.50;68.90;;;;;;4974060;28;20106;-78
2023/07/19 02:05:06;;;;;;;3.72;2.20;;;29.50;69.30;;;;;;4986740;28;20094;-78
2023/07/19 02:07:35;;;;;;;2.85;2.10;;;29.50;69.50;;;;;;4993639;28;20057;-79
2023/07/19 02:10:02;;;;;;;6.72;2.90;;;29.50;69.80;;;;;;4993717;28;20058;-79
2023/07/19 02:12:28;;;;;;;8.32;3.00;;;29.50;70.60;;;;;;4988485;28;20161;-78
2023/07/19 02:14:54;;;;;;;10.68;3.05;;;29.40;70.40;;;;;;4985052;28;20109;-77
2023/07/19 02:17:20;;;;;;;5.95;2.75;;;29.40;70.70;;;;;;4993627;28;20086;-77
2023/07/19 02:19:46;;;;;;;5.00;2.42;;;29.40;70.80;;;;;;4993824;28;20383;-77
2023/07/19 02:22:12;;;;;;;5.32;2.78;;;29.30;70.90;;;;;;4993862;28;20026;-77
2023/07/19 02:24:38;;;;;;;5.80;2.95;;;29.30;71.10;;;;;;4991641;28;20046;-77
2023/07/19 02:27:04;;;;;;;7.05;2.70;;;29.30;71.40;;;;;;4992328;28;20112;-77
2023/07/19 02:29:29;;;;;;;4.80;2.15;;;29.20;71.40;;;;;;4974280;28;20031;-78
2023/07/19 02:31:55;;;;;;;4.93;2.30;;;29.30;71.70;;;;;;4974076;28;20046;-78
2023/07/19 02:34:21;;;;;;;3.17;2.28;;;29.20;71.80;;;;;;4976884;28;20176;-78
2023/07/19 02:36:50;;;;;;;3.38;1.95;;;29.20;71.70;;;;;;4978722;28;20058;-78
2023/07/19 02:39:16;;;;;;;5.82;2.30;;;29.20;71.40;;;;;;4973699;28;20031;-77
2023/07/19 02:41:42;;;;;;;7.75;2.25;;;29.20;71.30;;;;;;4974310;28;20057;-78
2023/07/19 02:44:08;;;;;;;4.55;2.38;;;29.20;71.10;;;;;;4974940;28;20054;-78
2023/07/19 02:46:33;;;;;;;4.75;2.05;;;29.10;71.00;;;;;;4964114;28;20050;-87
2023/07/19 02:48:59;;;;;;;5.70;2.33;;;29.10;71.00;;;;;;4981096;28;20367;-87
2023/07/19 02:51:25;;;;;;;5.78;2.80;;;29.10;70.90;;;;;;4998353;28;20475;-87
2023/07/19 02:53:50;;;;;;;3.08;1.95;;;29.10;70.90;;;;;;4994828;28;20109;-87
2023/07/19 03:09:51;;;;;;;6.47;2.30;;;29.00;70.60;;;;;;5151511;27;20413;-79
2023/07/19 03:12:17;;;;;;;5.38;2.50;;;29.40;71.40;;;;;;5151676;27;20023;-79
2023/07/19 03:14:43;;;;;;;4.35;2.40;;;29.30;71.70;;;;;;5151887;27;20498;-78
2023/07/19 03:17:09;;;;;;;5.45;3.00;;;29.20;72.00;;;;;;5152444;27;20023;-79
2023/07/19 03:19:38;;;;;;;5.10;2.70;;;29.20;72.20;;;;;;5151783;27;20027;-78
2023/07/19 03:22:03;;;;;;;4.95;2.95;;;29.10;72.60;;;;;;5151725;27;20496;-78
2023/07/19 03:24:30;;;;;;;6.18;2.28;;;29.00;72.50;;;;;;5151654;27;20038;-79
2023/07/19 03:26:55;;;;;;;5.57;2.45;;;29.00;72.70;;;;;;5151728;27;20106;-78
2023/07/19 03:29:21;;;;;;;5.40;2.28;;;28.90;72.80;;;;;;5150468;27;20447;-79
2023/07/19 03:31:47;;;;;;;4.13;2.58;;;28.90;72.90;;;;;;5150451;27;20019;-78
2023/07/19 03:34:14;;;;;;;4.13;2.53;;;28.80;73.00;;;;;;5151813;27;20392;-78
2023/07/19 03:36:40;;;;;;;5.70;2.50;;;28.90;73.40;;;;;;5151651;27;20022;-78
2023/07/19 03:39:05;;;;;;;9.55;2.67;;;28.80;73.20;;;;;;5150946;27;20048;-78
2023/07/19 03:41:31;;;;;;;5.13;2.75;;;28.80;73.30;;;;;;5150388;27;20023;-78
2023/07/19 03:43:57;;;;;;;4.72;2.40;;;28.80;73.20;;;;;;5151284;27;20031;-78
2023/07/19 03:46:23;;;;;;;4.78;2.25;;;28.70;73.50;;;;;;5149690;27;20034;-78
2023/07/19 03:48:50;;;;;;;4.50;2.65;;;28.60;73.50;;;;;;5151567;27;20452;-78
2023/07/19 03:51:16;;;;;;;3.33;2.30;;;28.60;73.60;;;;;;5151690;27;20106;-78
2023/07/19 03:53:42;;;;;;;3.88;2.22;;;28.60;73.50;;;;;;5151629;27;20085;-78
2023/07/19 03:56:07;;;;;;;2.92;1.80;;;28.50;73.30;;;;;;5150146;27;20095;-78
2023/07/19 03:58:33;;;;;;;6.82;3.03;;;28.50;73.30;;;;;;5151247;27;20103;-78
2023/07/19 04:00:59;;;;;;;3.08;2.00;;;28.50;73.50;;;;;;5151420;27;20058;-78
2023/07/19 04:03:29;;;;;;;4.75;2.58;;;28.50;73.60;;;;;;5151337;27;20041;-79
2023/07/19 04:05:57;;;;;;;4.05;1.85;;;28.50;73.60;;;;;;5150955;27;20023;-79
2023/07/19 04:08:23;;;;;;;4.45;2.10;;;28.40;73.50;;;;;;5149366;27;20046;-79
2023/07/19 04:10:48;;;;;;;6.53;2.25;;;28.40;73.70;;;;;;5136871;27;20019;-78
2023/07/19 04:13:14;;;;;;;3.78;2.22;;;28.40;74.10;;;;;;5137489;27;20491;-78
2023/07/19 04:15:40;;;;;;;4.57;2.28;;;28.40;74.20;;;;;;5137084;27;20021;-78
2023/07/19 04:18:06;;;;;;;5.28;1.98;;;28.30;74.20;;;;;;5137175;27;20027;-78
2023/07/19 04:20:33;;;;;;;8.07;2.58;;;28.30;74.40;;;;;;5135366;27;20027;-78
2023/07/19 04:22:58;;;;;;;4.55;2.03;;;28.30;74.40;;;;;;5136912;27;20034;-79
2023/07/19 04:25:26;;;;;;;3.95;2.42;;;28.30;74.40;;;;;;5135082;27;20031;-79
2023/07/19 04:27:52;;;;;;;4.85;2.10;;;28.30;74.40;;;;;;5136565;27;20035;-79
2023/07/19 04:30:18;;;;;;;7.90;2.40;;;28.20;74.50;;;;;;5136940;27;20026;-79
2023/07/19 04:32:44;;;;;;;5.80;2.67;;;28.10;74.80;;;;;;5137080;27;20384;-79
2023/07/19 04:35:11;;;;;;;5.00;2.22;;;28.00;74.80;;;;;;5136971;27;20031;-79
2023/07/19 04:37:40;;;;;;;5.68;2.03;;;28.00;75.00;;;;;;5136275;27;20552;-79
2023/07/19 04:40:10;;;;;;;5.95;1.95;;;28.00;74.70;;;;;;5136912;27;20023;-79
2023/07/19 04:42:36;;;;;;;4.90;2.33;;;28.00;74.60;;;;;;5136762;27;20380;-79
2023/07/19 04:45:02;;;;;;;2.72;1.85;;;28.00;74.50;;;;;;5136897;27;20028;-79
2023/07/19 04:47:29;;;;;;;5.30;2.20;;;28.00;74.50;;;;;;5136451;27;20039;-79
2023/07/19 04:49:54;;;;;;;6.85;2.08;;;28.00;74.60;;;;;;5136399;27;20035;-79
2023/07/19 04:52:20;;;;;;;6.25;1.90;;;28.00;74.70;;;;;;5136481;27;20033;-79
2023/07/19 04:54:48;;;;;;;4.65;1.73;;;28.00;74.70;;;;;;5135201;27;20035;-79
2023/07/19 04:57:14;;;;;;;5.85;2.05;;;28.00;74.60;;;;;;5136001;27;20026;-79
2023/07/19 04:59:40;;;;;;;6.40;2.08;;;28.10;74.50;;;;;;5133386;27;20028;-79
2023/07/19 05:02:07;;;;;;;5.07;1.90;;;28.10;74.60;;;;;;5133434;27;20031;-78
2023/07/19 05:04:33;;;;;;;4.70;2.03;;;28.10;74.50;;;;;;5135141;27;20030;-78
2023/07/19 05:06:59;;;;;;;4.25;2.00;;;28.10;74.70;;;;;;5135115;27;20426;-78
2023/07/19 05:09:25;;;;;;;16.45;2.28;;;28.10;74.60;;;;;;5135415;27;20047;-78
2023/07/19 05:11:51;;;;;;;6.93;2.83;;;28.10;74.70;;;;;;5136322;27;20038;-79
2023/07/19 05:14:17;;;;;;;5.43;2.42;;;28.10;74.80;;;;;;5136287;27;20341;-78
2023/07/19 05:16:43;;;;;;;10.02;2.45;;;28.10;74.80;;;;;;5135814;27;20027;-78
2023/07/19 05:19:09;;;;;;;5.22;2.20;;;28.10;74.60;;;;;;5136043;27;20030;-78
2023/07/19 05:21:35;;;;;;;4.95;2.00;;;28.10;74.80;;;;;;5135352;27;20015;-78
2023/07/19 05:24:01;;;;;;;5.13;2.30;;;28.10;74.50;;;;;;5135939;27;20102;-79
2023/07/19 05:26:26;;;;;;;4.10;1.90;;;28.10;74.30;;;;;;5135691;27;20055;-79
2023/07/19 05:28:52;;;;;;;6.25;2.10;;;28.10;74.10;;;;;;5134314;27;20027;-78
2023/07/19 05:31:19;;;;;;;5.50;2.42;;;28.10;74.00;;;;;;5135173;27;20049;-78
2023/07/19 05:33:45;;;;;;;8.57;2.10;;;28.10;73.90;;;;;;5134478;27;20055;-78
2023/07/19 05:36:11;;;;;;;4.82;1.98;;;28.10;73.70;;;;;;5135873;27;20099;-78
2023/07/19 05:38:36;;;;;;;3.33;2.22;;;28.20;73.70;;;;;;5134622;27;20041;-78
2023/07/19 05:41:03;;;;;;;5.65;2.20;;;28.20;73.50;;;;;;5135473;27;20019;-79
2023/07/19 05:43:32;;;;;;;6.43;2.30;;;28.30;73.40;;;;;;5135993;27;20530;-79
2023/07/19 05:46:08;;;;;;;5.13;2.53;;;28.30;73.10;;;;;;5135636;27;20090;-79
2023/07/19 05:48:35;;;;;;;3.10;1.77;;;28.30;72.90;;;;;;5135290;27;20267;-79
2023/07/19 05:51:05;;;;;;;9.30;2.65;;;28.30;72.80;;;;;;5135189;27;20030;-78
2023/07/19 05:53:30;;;;;;;6.13;2.33;;;28.30;72.60;;;;;;5135337;27;20054;-78
2023/07/19 05:55:56;;;;;;;5.82;2.42;;;28.30;72.40;;;;;;5135609;27;20476;-78
2023/07/19 05:58:22;;;;;;;4.43;1.80;;;28.30;72.30;;;;;;5135302;27;20023;-79
2023/07/19 06:00:48;;;;;;;3.83;1.95;;;28.30;72.20;;;;;;5134111;27;20072;-79
2023/07/19 06:03:16;;;;;;;3.42;2.20;;;28.30;72.30;;;;;;5133426;27;20454;-79
2023/07/19 06:05:43;;;;;;;7.88;2.15;;;28.40;72.30;;;;;;5134981;27;20027;-79
2023/07/19 06:08:10;;;;;;;8.02;2.35;;;28.40;72.00;;;;;;5134871;27;20093;-79
2023/07/19 06:10:35;;;;;;;4.25;2.00;;;28.50;72.10;;;;;;5134398;27;20031;-79
2023/07/19 06:13:03;;;;;;;3.17;2.00;;;28.50;72.10;;;;;;5132720;27;20020;-79
2023/07/19 06:15:29;;;;;;;2.45;1.55;;;28.50;71.90;;;;;;5122121;27;20035;-79
2023/07/19 06:17:55;;;;;;;4.90;2.10;;;28.60;71.80;;;;;;5134030;27;20103;-79
2023/07/19 06:20:21;;;;;;;7.18;2.35;;;28.60;71.40;;;;;;5133338;27;20058;-80
2023/07/19 06:22:46;;;;;;;4.82;2.30;;;28.60;71.40;;;;;;5134093;27;20012;-79
2023/07/19 06:25:12;;;;;;;7.10;2.20;;;28.60;71.30;;;;;;5134265;27;20476;-80
2023/07/19 06:27:38;;;;;;;7.45;2.83;;;28.60;71.50;;;;;;5132853;27;20030;-79
2023/07/19 06:30:04;;;;;;;4.93;2.17;;;28.50;71.40;;;;;;5134235;27;20033;-79
2023/07/19 06:32:30;;;;;;;2.80;2.05;;;28.40;71.60;;;;;;5134471;27;20495;-79
2023/07/19 06:34:56;;;;;;;4.70;2.33;;;28.40;72.10;;;;;;5134546;27;20027;-79
2023/07/19 06:37:22;;;;;;;4.50;1.75;;;28.50;73.00;;;;;;5134631;27;20019;-78
2023/07/19 06:39:48;;;;;;;3.88;1.88;;;28.50;72.30;;;;;;5133208;27;20019;-78
2023/07/19 06:42:14;;;;;;;6.68;2.42;;;28.50;72.70;;;;;;5134602;27;20086;-80
2023/07/19 06:44:39;;;;;;;4.43;1.85;;;28.50;73.10;;;;;;5132753;27;20490;-80
2023/07/19 06:47:05;;;;;;;3.35;2.20;;;28.50;72.80;;;;;;5131372;27;20071;-80
2023/07/19 06:49:31;;;;;;;6.22;2.25;;;28.50;72.80;;;;;;5134059;27;20019;-81
2023/07/19 06:51:57;;;;;;;5.45;1.90;;;28.60;72.60;;;;;;5134555;27;20095;-80
2023/07/19 06:54:23;;;;;;;5.63;2.67;;;28.70;72.90;;;;;;5133707;27;20050;-80
2023/07/19 06:56:48;;;;;;;4.43;1.95;;;28.70;72.90;;;;;;5133674;28;20555;-80
2023/07/19 06:59:14;;;;;;;4.15;1.45;;;28.80;72.50;;;;;;5132568;28;20072;-80
2023/07/19 07:01:40;;;;;;;4.35;1.80;;;28.80;72.40;;;;;;5133753;27;20141;-81
2023/07/19 07:04:09;;;;;;;9.80;2.58;;;28.90;72.20;;;;;;5132272;28;20060;-79
2023/07/19 07:06:35;;;;;;;6.38;1.95;;;28.90;72.40;;;;;;5132098;27;20523;-80
2023/07/19 07:09:01;;;;;;;6.28;2.40;;;28.90;71.70;;;;;;5132637;28;20403;-79
2023/07/19 07:11:27;;;;;;;4.28;1.40;;;29.00;72.00;;;;;;5133318;27;20533;-79
2023/07/19 07:13:52;;;;;;;6.47;2.50;;;29.00;72.20;;;;;;5133540;28;20065;-80
2023/07/19 07:16:18;;;;;;;6.78;2.83;;;29.10;72.20;;;;;;5133543;28;20349;-80
2023/07/19 07:18:44;;;;;;;11.35;2.60;;;29.20;71.00;;;;;;5131767;28;20373;-81
2023/07/19 07:21:10;;;;;;;5.63;2.00;;;29.20;71.30;;;;;;5132498;28;20023;-79
2023/07/19 07:23:36;;;;;;;8.90;1.95;;;29.30;71.40;;;;;;5133492;28;20027;-80
2023/07/19 07:26:02;;;;;;;4.22;1.95;;;29.30;71.30;;;;;;5133861;28;20024;-80
2023/07/19 07:28:27;;;;;;;7.93;2.42;;;29.40;71.00;;;;;;5132678;28;20111;-81
2023/07/19 07:30:53;;;;;;;5.95;1.80;;;29.50;71.50;;;;;;5130664;28;20110;-81
2023/07/19 07:33:19;;;;;;;7.50;2.65;;;29.50;71.60;;;;;;5133582;28;20035;-80
2023/07/19 07:35:46;;;;;;;6.78;2.08;;;29.60;72.00;;;;;;5131039;27;20015;-78
2023/07/19 07:38:11;;;;;;;4.57;1.98;;;29.60;71.70;;;;;;5132956;28;20031;-79
2023/07/19 07:40:37;;;;;;;8.27;2.03;;;29.70;71.60;;;;;;5133100;28;20469;-79
2023/07/19 07:43:03;;;;;;;6.55;2.28;;;29.70;71.70;;;;;;5133936;27;20561;-79
2023/07/19 07:45:29;;;;;;;4.78;2.17;;;29.60;71.50;;;;;;5134182;27;20468;-78
2023/07/19 07:47:55;;;;;;;3.72;1.83;;;29.70;71.30;;;;;;5137047;27;20365;-78
2023/07/19 07:50:22;;;;;;;5.03;1.85;;;29.70;71.60;;;;;;5137041;27;20031;-78
2023/07/19 07:52:48;;;;;;;5.15;2.00;;;29.80;71.70;;;;;;5137129;27;20023;-78
2023/07/19 07:55:14;;;;;;;4.63;2.15;;;29.90;71.70;;;;;;5136872;27;20155;-80
2023/07/19 07:57:40;;;;;;;7.25;2.35;;;30.00;71.90;;;;;;5136608;27;20118;-81
2023/07/19 08:00:06;;;;;;;4.97;1.98;;;30.10;71.30;;;;;;5137174;27;20023;-79
2023/07/19 08:02:32;;;;;;;6.38;2.35;;;30.10;71.10;;;;;;5136889;27;20027;-79
2023/07/19 08:04:58;;;;;;;7.47;2.03;;;30.20;71.10;;;;;;5136703;27;20485;-80
2023/07/19 08:07:26;;;;;;;7.00;2.63;;;30.20;70.90;;;;;;5136034;27;20022;-79
2023/07/19 08:09:53;;;;;;;5.28;2.13;;;30.30;71.10;;;;;;5135173;27;20057;-79
2023/07/19 08:12:20;;;;;;;6.57;2.35;;;30.40;71.00;;;;;;5136179;27;20038;-80
2023/07/19 08:14:46;;;;;;;7.30;2.45;;;30.40;71.00;;;;;;5135861;27;20111;-80
2023/07/19 08:17:11;;;;;;;7.80;2.45;;;30.50;70.90;;;;;;5131510;27;20086;-80
2023/07/19 08:19:38;;;;;;;5.30;2.22;;;30.60;70.80;;;;;;5116354;28;20051;-80
2023/07/19 08:22:04;;;;;;;4.25;1.90;;;30.60;70.80;;;;;;5116014;28;20024;-82
2023/07/19 08:24:30;;;;;;;7.18;2.38;;;30.80;70.80;;;;;;5115410;28;20023;-82
2023/07/19 08:26:56;;;;;;;5.00;2.30;;;30.80;70.70;;;;;;5131244;27;20045;-81
2023/07/19 08:29:22;;;;;;;5.93;2.70;;;30.90;70.60;;;;;;5115634;28;20513;-81
2023/07/19 08:31:48;;;;;;;4.22;2.28;;;31.00;70.20;;;;;;5115786;28;20090;-82
2023/07/19 08:34:13;;;;;;;5.43;2.20;;;31.00;70.40;;;;;;5115906;28;20119;-82
2023/07/19 08:36:39;;;;;;;5.45;2.38;;;31.00;70.50;;;;;;5115983;28;20483;-81
2023/07/19 08:39:05;;;;;;;6.72;2.70;;;31.10;70.50;;;;;;5114307;28;20387;-81
2023/07/19 08:41:32;;;;;;;5.22;2.20;;;31.20;70.40;;;;;;5115742;28;20476;-81
2023/07/19 08:43:58;;;;;;;4.72;2.22;;;31.30;70.40;;;;;;5115584;28;20019;-81
2023/07/19 08:46:24;;;;;;;4.20;2.30;;;31.30;70.30;;;;;;5115974;28;20077;-82
2023/07/19 08:48:50;;;;;;;5.32;2.63;;;31.40;70.30;;;;;;5115808;28;20531;-81
2023/07/19 08:51:17;;;;;;;9.30;3.03;;;31.50;70.30;;;;;;5115551;28;20031;-81
2023/07/19 08:53:44;;;;;;;9.90;2.90;;;31.50;69.90;;;;;;5114203;28;20035;-81
2023/07/19 08:56:14;;;;;;;7.03;3.28;;;31.50;70.20;;;;;;5115899;28;20031;-81
2023/07/19 08:58:40;;;;;;;7.78;3.30;;;31.50;70.50;;;;;;5115610;28;20061;-81
2023/07/19 09:01:07;;;;;;;5.95;3.20;;;31.70;70.30;;;;;;5114213;28;20064;-82
2023/07/19 09:03:33;;;;;;;5.68;2.53;;;31.70;69.80;;;;;;5131129;27;20019;-81
2023/07/19 09:05:59;;;;;;;4.47;2.28;;;31.70;70.00;;;;;;5115118;28;20016;-81
2023/07/19 09:08:38;;;;;;;7.72;2.63;;;31.70;70.10;;;;;;5114926;28;20131;-81
2023/07/19 09:11:04;;;;;;;;;;;31.80;70.70;;;;;;5115604;28;20028;-82
2023/07/19 09:13:35;;;;;;;4.75;2.65;;;31.80;70.10;;;;;;5114902;28;19914;-81
2023/07/19 09:16:04;;;;;;;6.03;2.80;;;31.90;70.40;;;;;;5115039;28;20030;-81
2023/07/19 09:18:36;;;;;;;4.13;2.65;;;32.00;70.10;;;;;;5115207;28;20019;-81
2023/07/19 09:21:04;;;;;;;6.60;2.90;;;32.00;69.70;;;;;;5115504;28;20365;-81
2023/07/19 09:23:37;;;;;;;7.20;2.85;;;31.90;69.90;;;;;;5115204;28;20072;-80
2023/07/19 09:26:04;;;;;;;5.40;2.70;;;32.00;70.20;;;;;;5115215;28;20477;-80
2023/07/19 09:28:30;;;;;;;3.70;2.42;;;32.00;70.20;;;;;;5114924;28;20485;-81
2023/07/19 09:31:02;;;;;;;5.88;2.78;;;32.10;70.30;;;;;;5115049;28;20020;-82
2023/07/19 09:33:28;;;;;;;4.30;2.55;;;32.20;70.10;;;;;;5114962;28;20034;-82
2023/07/19 09:35:58;;;;;;;6.75;2.78;;;32.30;69.80;;;;;;5113505;28;20023;-82
2023/07/19 09:38:25;;;;;;;5.05;2.60;;;32.30;69.30;;;;;;5114292;28;20020;-81
2023/07/19 09:40:51;;;;;;;8.27;2.95;;;32.40;69.40;;;;;;5114530;28;20023;-82
2023/07/19 09:43:18;;;;;;;3.67;2.97;;;32.50;69.20;;;;;;5114323;28;20044;-82
2023/07/19 09:45:46;;;;;;;6.22;3.20;;;32.50;69.20;;;;;;5113005;27;20035;-82
2023/07/19 09:48:16;;;;;;;8.40;3.30;;;32.50;69.50;;;;;;5131061;27;20572;-81
2023/07/19 09:50:42;;;;;;;6.20;3.08;;;32.60;69.30;;;;;;5133421;27;20353;-81
2023/07/19 09:53:13;;;;;;;3.60;2.55;;;32.70;69.10;;;;;;5134642;27;20023;-82
2023/07/19 09:55:39;;;;;;;5.93;2.80;;;32.80;69.20;;;;;;5134499;27;20041;-79
2023/07/19 09:58:12;;;;;;;5.68;2.88;;;32.90;69.00;;;;;;5132887;27;20031;-79
2023/07/19 10:00:39;;;;;;;9.07;3.35;;;32.90;68.40;;;;;;5133092;27;20030;-79
2023/07/19 10:03:08;;;;;;;6.68;3.17;;;33.00;68.70;;;;;;5133005;27;20023;-79
2023/07/19 10:05:36;;;;;;;7.93;2.85;;;33.00;68.20;;;;;;5133997;27;20019;-79
2023/07/19 10:08:05;;;;;;;6.22;3.00;;;33.20;68.20;;;;;;5133922;27;20043;-80
2023/07/19 10:10:34;;;;;;;;;;;33.30;68.30;;;;;;5135118;27;20019;-79
2023/07/19 10:13:00;;;;;;;8.73;2.85;;;33.40;68.40;;;;;;5133957;27;20325;-80
2023/07/19 10:15:26;;;;;;;5.57;2.88;;;33.40;67.70;;;;;;5134572;27;20051;-79
2023/07/19 10:17:59;;;;;;;5.78;3.13;;;33.50;67.90;;;;;;5133756;27;20472;-79
2023/07/19 10:20:28;;;;;;;5.93;3.33;;;33.70;67.90;;;;;;5134287;27;20125;-79
2023/07/19 10:22:58;;;;;;;6.90;2.63;;;33.80;67.10;;;;;;5134481;27;20007;-79
2023/07/19 10:25:37;;;;;;;4.95;2.70;;;33.90;67.20;;;;;;5134283;27;20019;-79
2023/07/19 10:28:07;;;;;;;4.25;2.60;;;34.00;67.50;;;;;;5133822;27;20067;-79
2023/07/19 10:30:45;;;;;;;6.07;3.08;;;34.10;66.70;;;;;;5134009;27;20503;-79
2023/07/19 10:33:15;;;;;;;5.45;2.83;;;34.20;66.10;;;;;;5134439;27;20577;-79
2023/07/19 10:35:42;;;;;;;4.88;2.58;;;34.30;66.60;;;;;;5133609;27;20500;-79
2023/07/19 10:38:25;;;;;;;6.80;2.70;;;34.40;66.70;;;;;;5133508;27;20098;-79
2023/07/19 10:40:58;;;;;;;6.43;2.72;;;34.50;65.90;;;;;;5134115;27;20023;-79
2023/07/19 10:43:25;;;;;;;5.68;2.90;;;34.70;65.00;;;;;;5133470;27;20030;-79
2023/07/19 10:45:52;;;;;;;5.50;2.58;;;34.80;64.80;;;;;;5133547;27;20484;-78
2023/07/19 10:48:20;;;;;;;6.00;2.95;;;34.80;65.10;;;;;;5133593;27;20023;-79
2023/07/19 10:50:46;;;;;;;4.13;2.70;;;34.90;65.50;;;;;;5133781;27;20026;-79
2023/07/19 10:53:14;;;;;;;3.80;2.65;;;35.00;65.60;;;;;;5133524;27;20097;-79
2023/07/19 10:55:40;;;;;;;4.70;2.97;;;35.20;65.80;;;;;;5133794;27;20030;-79
2023/07/19 10:58:06;;;;;;;9.40;3.78;;;35.40;65.40;;;;;;5133517;27;20023;-79
2023/07/19 11:00:35;;;;;;;11.10;3.72;;;35.50;64.40;;;;;;5133713;28;20026;-80
2023/07/19 11:03:00;;;;;;;6.07;2.85;;;35.50;64.10;;;;;;5133522;27;20045;-79
2023/07/19 11:05:26;;;;;;;9.90;3.28;;;35.50;64.20;;;;;;5133604;28;20016;-79
2023/07/19 11:07:52;;;;;;;7.78;3.53;;;35.70;64.70;;;;;;5133810;27;20039;-79
2023/07/19 11:10:18;;;;;;;7.10;3.10;;;35.90;64.70;;;;;;5133808;28;20034;-82
2023/07/19 11:12:44;;;;;;;8.18;3.67;;;36.10;64.10;;;;;;5133236;28;20459;-83
2023/07/19 11:15:10;;;;;;;7.80;3.80;;;36.20;63.00;;;;;;5133249;28;20071;-83
2023/07/19 11:17:38;;;;;;;7.13;3.83;;;36.30;62.10;;;;;;5133195;28;20034;-83
2023/07/19 11:20:05;;;;;;;10.35;3.50;;;36.20;62.10;;;;;;5135427;27;20011;-82
2023/07/19 11:22:43;;;;;;;6.75;3.13;;;36.20;62.60;;;;;;5139904;27;20098;-82
2023/07/19 11:25:10;;;;;;;11.10;4.18;;;36.40;62.70;;;;;;5132407;27;20381;-82
2023/07/19 11:27:37;;;;;;;8.77;3.70;;;36.60;62.20;;;;;;5136205;27;20068;-82
2023/07/19 11:30:03;;;;;;;6.65;3.70;;;36.80;62.00;;;;;;5135653;27;20484;-82
2023/07/19 11:32:29;;;;;;;7.68;3.25;;;36.90;61.60;;;;;;5135920;27;20035;-82
2023/07/19 11:34:57;;;;;;;8.75;3.25;;;37.10;61.40;;;;;;5137009;27;20152;-82
2023/07/19 11:37:27;;;;;;;6.82;3.25;;;37.40;61.30;;;;;;5134106;27;20035;-82
2023/07/19 11:39:57;;;;;;;11.82;4.97;;;37.60;60.60;;;;;;5138260;27;20039;-82
2023/07/19 11:42:44;;;;;;;7.95;3.40;;;37.90;59.60;;;;;;5137505;27;20407;-82
2023/07/19 11:45:14;;;;;;;11.07;3.85;;;38.00;59.30;;;;;;5137792;27;20027;-82
2023/07/19 11:47:41;;;;;;;7.72;3.05;;;38.30;59.40;;;;;;5137323;27;20031;-82
2023/07/19 11:50:09;;;;;;;6.13;3.20;;;38.60;59.40;;;;;;5137203;27;20472;-82
2023/07/19 11:52:46;;;;;;;9.23;3.65;;;39.00;58.50;;;;;;5137211;27;20027;-82
2023/07/19 11:55:16;;;;;;;7.05;2.90;;;39.20;56.80;;;;;;5137395;27;20494;-82
2023/07/19 11:57:42;;;;;;;;;;;39.50;57.10;;;;;;5137371;27;20077;-81
2023/07/19 12:00:10;;;;;;;8.80;3.30;;;39.60;55.60;;;;;;5141690;27;19907;-81
2023/07/19 12:02:36;;;;;;;10.38;3.45;;;39.70;55.60;;;;;;5136931;27;20026;-81
2023/07/19 12:05:04;;;;;;;5.60;3.30;;;39.80;56.10;;;;;;5134123;27;20381;-84
2023/07/19 12:07:31;;;;;;;7.82;3.53;;;39.90;55.70;;;;;;5135613;27;20027;-82
2023/07/19 12:09:57;;;;;;;6.95;2.92;;;40.00;55.30;;;;;;5137150;27;20055;-82
2023/07/19 12:12:23;;;;;;;8.80;4.03;;;40.10;54.80;;;;;;5134204;27;20380;-82
2023/07/19 12:14:49;;;;;;;6.18;3.13;;;40.30;54.30;;;;;;5136020;27;20161;-83
2023/07/19 12:17:15;;;;;;;6.80;3.17;;;40.40;54.00;;;;;;5135400;27;20021;-82
2023/07/19 12:19:40;;;;;;;11.95;3.15;;;40.40;53.10;;;;;;5136843;27;20038;-82
2023/07/19 12:22:06;;;;;;;3.95;2.88;;;40.60;52.70;;;;;;5136354;27;20028;-82
2023/07/19 12:24:31;;;;;;;6.38;3.22;;;40.70;53.00;;;;;;5136792;27;20030;-82
2023/07/19 12:26:57;;;;;;;5.80;3.55;;;40.80;52.70;;;;;;5136615;27;20016;-83
2023/07/19 12:29:25;;;;;;;4.72;3.28;;;40.90;52.30;;;;;;5135967;27;20098;-83
2023/07/19 12:31:51;;;;;;;6.57;4.00;;;41.00;51.80;;;;;;5136674;27;20054;-83
2023/07/19 12:34:20;;;;;;;6.13;3.17;;;41.00;51.50;;;;;;5137034;27;20035;-83
2023/07/19 12:36:50;;;;;;;6.95;3.45;;;41.10;52.30;;;;;;5136518;27;20031;-83
2023/07/19 12:39:21;;;;;;;4.28;2.75;;;41.10;52.00;;;;;;5134961;27;20031;-83
2023/07/19 12:41:47;;;;;;;4.97;3.10;;;41.10;51.40;;;;;;5136648;27;20069;-83
2023/07/19 12:44:13;;;;;;;8.70;3.55;;;41.00;51.10;;;;;;5136562;27;20368;-82
2023/07/19 12:46:40;;;;;;;6.10;3.10;;;41.00;50.40;;;;;;5136523;27;20023;-83
2023/07/19 12:49:06;;;;;;;9.48;3.95;;;41.00;50.50;;;;;;5136420;27;20031;-83
2023/07/19 12:51:32;;;;;;;5.70;3.53;;;41.10;50.40;;;;;;5136778;27;20025;-83
2023/07/19 12:53:59;;;;;;;6.30;3.47;;;41.20;50.50;;;;;;5136621;27;20023;-83
2023/07/19 12:56:24;;;;;;;5.10;3.78;;;41.30;50.30;;;;;;5135932;27;20114;-83
2023/07/19 12:58:50;;;;;;;6.30;3.33;;;41.30;50.00;;;;;;5136288;27;20549;-83